createdAt,value
2018-03-31T00:02:10.650Z,5.20
2018-03-31T00:04:41.311Z,5.47
2018-03-31T00:07:11.941Z,6.93
2018-03-31T00:09:42.603Z,5.10
2018-03-31T00:12:13.278Z,6.07
2018-03-31T00:14:43.968Z,5.70
2018-03-31T00:17:14.637Z,5.70
2018-03-31T00:19:45.298Z,6.53
2018-03-31T00:22:22.041Z,5.67
2018-03-31T00:24:52.739Z,6.00
2018-03-31T00:27:23.438Z,5.37
2018-03-31T00:29:54.194Z,6.13
2018-03-31T00:32:24.923Z,7.73
2018-03-31T00:34:55.595Z,6.00
2018-03-31T00:37:26.233Z,5.70
2018-03-31T00:39:56.904Z,6.30
2018-03-31T00:42:27.640Z,5.70
2018-03-31T00:44:58.335Z,6.30
2018-03-31T00:47:29.007Z,6.27
2018-03-31T00:49:59.690Z,7.10
2018-03-31T00:52:30.370Z,7.30
2018-03-31T00:55:03.070Z,6.87
2018-03-31T00:57:33.747Z,6.10
2018-03-31T01:00:04.423Z,6.57
2018-03-31T01:02:35.108Z,5.67
2018-03-31T01:05:05.814Z,6.30
2018-03-31T01:07:36.516Z,5.27
2018-03-31T01:10:07.182Z,5.83
2018-03-31T01:12:37.837Z,8.10
2018-03-31T01:15:08.546Z,7.33
2018-03-31T01:17:39.227Z,6.97
2018-03-31T01:20:09.905Z,7.23
2018-03-31T01:22:40.621Z,7.60
2018-03-31T01:25:11.277Z,9.33
2018-03-31T01:27:42.044Z,7.33
2018-03-31T01:30:12.724Z,6.67
2018-03-31T01:32:43.377Z,7.60
2018-03-31T01:35:14.086Z,7.20
2018-03-31T01:37:44.741Z,6.90
2018-03-31T01:40:15.458Z,7.83
2018-03-31T01:42:46.134Z,7.20
2018-03-31T01:45:16.840Z,6.83
2018-03-31T01:47:47.551Z,11.20
2018-03-31T01:50:18.238Z,7.17
2018-03-31T01:52:48.942Z,6.27
2018-03-31T01:55:19.652Z,6.87
2018-03-31T01:57:50.309Z,7.10
2018-03-31T02:00:21.001Z,8.70
2018-03-31T02:02:51.672Z,7.10
2018-03-31T02:05:22.380Z,7.23
2018-03-31T02:07:53.033Z,8.10
2018-03-31T02:10:23.759Z,7.23
2018-03-31T02:12:54.419Z,7.77
2018-03-31T02:15:25.111Z,7.20
2018-03-31T02:17:55.764Z,7.80
2018-03-31T02:20:26.474Z,7.57
2018-03-31T02:22:57.130Z,8.03
2018-03-31T02:25:27.840Z,8.40
2018-03-31T02:27:58.494Z,9.23
2018-03-31T02:30:29.179Z,7.43
2018-03-31T02:32:59.855Z,8.30
2018-03-31T02:35:30.576Z,9.77
2018-03-31T02:38:01.229Z,8.57
2018-03-31T02:40:31.940Z,7.33
2018-03-31T02:43:02.591Z,7.10
2018-03-31T02:45:33.233Z,8.23
2018-03-31T02:48:03.938Z,7.87
2018-03-31T02:50:34.625Z,7.63
2018-03-31T02:53:05.321Z,9.43
2018-03-31T02:55:36.049Z,7.80
2018-03-31T02:58:06.765Z,7.23
2018-03-31T03:00:37.432Z,6.80
2018-03-31T03:03:08.132Z,7.70
2018-03-31T03:05:38.834Z,7.97
2018-03-31T03:08:09.500Z,8.40
2018-03-31T03:10:40.246Z,10.17
2018-03-31T03:13:10.885Z,7.90
2018-03-31T03:15:41.613Z,7.37
2018-03-31T03:18:12.289Z,8.50
2018-03-31T03:20:42.981Z,6.83
2018-03-31T03:23:13.716Z,6.90
2018-03-31T03:25:44.463Z,8.20
2018-03-31T03:28:15.166Z,7.23
2018-03-31T03:30:45.899Z,8.20
2018-03-31T03:33:16.553Z,8.70
2018-03-31T03:35:47.238Z,8.10
2018-03-31T03:38:17.915Z,7.13
2018-03-31T03:40:48.608Z,8.50
2018-03-31T03:43:19.278Z,8.03
2018-03-31T03:45:49.979Z,8.77
2018-03-31T03:48:20.645Z,9.53
2018-03-31T03:50:51.382Z,7.47
2018-03-31T03:53:22.023Z,8.63
2018-03-31T03:55:52.703Z,8.43
2018-03-31T03:58:23.375Z,7.90
2018-03-31T04:00:54.061Z,8.33
2018-03-31T04:03:24.718Z,9.10
2018-03-31T04:05:55.402Z,8.90
2018-03-31T04:08:26.078Z,7.90
2018-03-31T04:10:56.744Z,8.47
2018-03-31T04:13:27.384Z,7.90
2018-03-31T04:15:58.032Z,7.23
2018-03-31T04:18:28.671Z,8.23
2018-03-31T04:20:59.352Z,7.53
2018-03-31T04:23:29.995Z,6.73
2018-03-31T04:26:00.695Z,6.73
2018-03-31T04:28:31.350Z,7.10
2018-03-31T04:31:02.011Z,6.37
2018-03-31T04:33:32.641Z,6.23
2018-03-31T04:36:03.301Z,5.80
2018-03-31T04:38:33.951Z,4.50
2018-03-31T04:41:04.645Z,3.93
2018-03-31T04:43:35.279Z,3.90
2018-03-31T04:46:05.985Z,3.87
2018-03-31T04:48:36.644Z,3.70
2018-03-31T04:51:07.325Z,3.70
2018-03-31T04:53:38.014Z,3.40
2018-03-31T04:56:08.724Z,2.90
2018-03-31T04:58:39.368Z,2.63
2018-03-31T05:01:10.080Z,2.60
2018-03-31T05:03:40.732Z,3.80
2018-03-31T05:06:11.441Z,2.70
2018-03-31T05:08:42.096Z,2.20
2018-03-31T05:11:12.812Z,2.67
2018-03-31T05:13:43.505Z,2.50
2018-03-31T05:16:14.224Z,2.77
2018-03-31T05:18:44.938Z,2.70
2018-03-31T05:21:15.604Z,2.43
2018-03-31T05:23:46.274Z,2.00
2018-03-31T05:26:16.956Z,2.50
2018-03-31T05:28:47.665Z,2.20
2018-03-31T05:31:18.359Z,2.40
2018-03-31T05:33:49.004Z,2.10
2018-03-31T05:36:19.733Z,2.70
2018-03-31T05:38:50.387Z,2.40
2018-03-31T05:41:21.028Z,2.97
2018-03-31T05:43:51.764Z,3.37
2018-03-31T05:46:22.461Z,4.37
2018-03-31T05:48:53.117Z,3.40
2018-03-31T05:51:23.792Z,2.70
2018-03-31T05:53:54.466Z,3.30
2018-03-31T05:56:25.134Z,3.30
2018-03-31T05:58:55.831Z,2.90
2018-03-31T06:01:26.490Z,2.93
2018-03-31T06:03:57.200Z,3.83
2018-03-31T06:06:27.925Z,3.07
2018-03-31T06:08:58.672Z,2.90
2018-03-31T06:11:29.317Z,3.33
2018-03-31T06:14:00.028Z,2.70
2018-03-31T06:16:30.700Z,2.87
2018-03-31T06:19:01.374Z,3.67
2018-03-31T06:21:32.031Z,2.50
2018-03-31T06:24:02.700Z,2.60
2018-03-31T06:26:33.400Z,3.00
2018-03-31T06:29:04.046Z,2.50
2018-03-31T06:31:34.736Z,4.13
2018-03-31T06:34:05.396Z,2.67
2018-03-31T06:36:36.123Z,2.40
2018-03-31T06:39:06.777Z,3.13
2018-03-31T06:41:37.462Z,2.53
2018-03-31T06:44:08.128Z,3.77
2018-03-31T06:46:38.925Z,4.70
2018-03-31T06:49:09.585Z,2.73
2018-03-31T06:51:40.257Z,3.73
2018-03-31T06:54:10.950Z,2.80
2018-03-31T06:56:41.662Z,2.70
2018-03-31T06:59:12.345Z,6.93
2018-03-31T07:01:43.025Z,2.93
2018-03-31T07:04:13.682Z,5.90
2018-03-31T07:06:44.389Z,2.87
2018-03-31T07:09:15.066Z,5.63
2018-03-31T07:11:45.777Z,5.73
2018-03-31T07:14:16.447Z,3.20
2018-03-31T07:16:47.147Z,3.33
2018-03-31T07:19:17.852Z,3.30
2018-03-31T07:21:48.522Z,3.00
2018-03-31T07:24:19.242Z,3.83
2018-03-31T07:26:49.947Z,4.07
2018-03-31T07:29:20.610Z,3.83
2018-03-31T07:31:51.300Z,3.93
2018-03-31T07:34:22.051Z,3.77
2018-03-31T07:36:52.730Z,3.60
2018-03-31T07:39:23.376Z,3.90
2018-03-31T07:41:54.029Z,3.40
2018-03-31T07:44:24.709Z,3.90
2018-03-31T07:46:55.382Z,3.97
2018-03-31T07:49:26.077Z,3.43
2018-03-31T07:51:56.762Z,3.50
2018-03-31T07:54:27.430Z,4.07
2018-03-31T07:56:58.093Z,3.43
2018-03-31T07:59:28.741Z,3.60
2018-03-31T08:01:59.435Z,2.93
2018-03-31T08:04:30.106Z,3.50
2018-03-31T08:07:00.783Z,3.77
2018-03-31T08:09:31.431Z,4.73
2018-03-31T08:12:02.119Z,4.27
2018-03-31T08:14:32.755Z,4.50
2018-03-31T08:17:03.498Z,4.00
2018-03-31T08:19:34.171Z,3.33
2018-03-31T08:22:04.831Z,4.40
2018-03-31T08:24:35.530Z,3.37
2018-03-31T08:27:06.198Z,4.00
2018-03-31T08:29:36.858Z,4.00
2018-03-31T08:32:07.578Z,4.27
2018-03-31T08:34:38.264Z,4.50
2018-03-31T08:37:08.931Z,5.00
2018-03-31T08:39:39.625Z,7.73
2018-03-31T08:42:10.314Z,5.00
2018-03-31T08:44:40.989Z,4.10
2018-03-31T08:47:11.764Z,4.23
2018-03-31T08:49:42.386Z,4.20
2018-03-31T08:52:13.114Z,4.40
2018-03-31T08:54:43.824Z,4.27
2018-03-31T08:57:14.520Z,3.47
2018-03-31T08:59:45.197Z,3.77
2018-03-31T09:02:15.890Z,4.07
2018-03-31T09:04:46.558Z,3.50
2018-03-31T09:07:17.228Z,4.00
2018-03-31T09:09:47.922Z,4.13
2018-03-31T09:12:18.628Z,4.03
2018-03-31T09:14:49.315Z,3.90
2018-03-31T09:17:20.014Z,3.90
2018-03-31T09:19:50.657Z,3.97
2018-03-31T09:22:21.374Z,3.53
2018-03-31T09:24:52.057Z,3.83
2018-03-31T09:27:22.829Z,3.63
2018-03-31T09:29:53.487Z,4.00
2018-03-31T09:32:24.174Z,4.60
2018-03-31T09:34:54.856Z,3.80
2018-03-31T09:37:25.538Z,3.87
2018-03-31T09:39:56.244Z,3.73
2018-03-31T09:42:26.919Z,4.47
2018-03-31T09:44:57.580Z,3.87
2018-03-31T09:47:28.277Z,4.00
2018-03-31T09:49:58.919Z,3.97
2018-03-31T09:52:29.589Z,3.63
2018-03-31T09:55:00.296Z,3.20
2018-03-31T09:57:30.964Z,3.40
2018-03-31T10:00:01.610Z,3.50
2018-03-31T10:02:32.304Z,2.70
2018-03-31T10:05:02.973Z,2.83
2018-03-31T10:07:33.648Z,3.40
2018-03-31T10:10:04.315Z,3.20
2018-03-31T10:12:35.042Z,6.63
2018-03-31T10:15:05.711Z,1.87
2018-03-31T10:17:36.389Z,2.60
2018-03-31T10:20:07.050Z,2.57
2018-03-31T10:22:37.784Z,2.23
2018-03-31T10:25:08.408Z,2.87
2018-03-31T10:27:39.158Z,2.47
2018-03-31T10:30:09.843Z,2.67
2018-03-31T10:32:40.504Z,2.80
2018-03-31T10:35:11.269Z,2.80
2018-03-31T10:37:41.956Z,2.67
2018-03-31T10:40:12.670Z,3.27
2018-03-31T10:42:43.398Z,2.80
2018-03-31T10:45:14.085Z,2.20
2018-03-31T10:47:44.785Z,2.63
2018-03-31T10:50:15.451Z,2.53
2018-03-31T10:52:46.181Z,3.23
2018-03-31T10:55:16.817Z,2.27
2018-03-31T10:57:47.530Z,2.27
2018-03-31T11:00:18.203Z,2.13
2018-03-31T11:02:48.867Z,1.50
2018-03-31T11:05:19.501Z,2.17
2018-03-31T11:07:50.268Z,1.53
2018-03-31T11:10:20.948Z,1.87
2018-03-31T11:12:51.703Z,1.40
2018-03-31T11:15:22.384Z,1.83
2018-03-31T11:17:53.083Z,1.80
2018-03-31T11:20:23.749Z,1.93
2018-03-31T11:22:54.425Z,1.80
2018-03-31T11:25:25.118Z,2.20
2018-03-31T11:27:55.818Z,1.70
2018-03-31T11:30:26.478Z,2.10
2018-03-31T11:32:57.180Z,2.00
2018-03-31T11:35:27.842Z,3.83
2018-03-31T11:37:58.525Z,1.50
2018-03-31T11:40:29.280Z,2.30
2018-03-31T11:42:59.943Z,3.17
2018-03-31T11:45:30.658Z,1.97
2018-03-31T11:48:01.395Z,1.80
2018-03-31T11:50:32.090Z,1.50
2018-03-31T11:53:02.765Z,1.80
2018-03-31T11:55:33.410Z,1.97
2018-03-31T11:58:04.132Z,2.13
2018-03-31T12:00:34.820Z,2.20
2018-03-31T12:03:05.495Z,2.07
2018-03-31T12:05:36.147Z,2.10
2018-03-31T12:08:06.841Z,1.77
2018-03-31T12:10:37.511Z,1.73
2018-03-31T12:13:08.193Z,2.40
2018-03-31T12:15:38.834Z,2.00
2018-03-31T12:18:09.518Z,2.40
2018-03-31T12:20:40.182Z,2.73
2018-03-31T12:23:10.855Z,2.53
2018-03-31T12:25:41.485Z,2.63
2018-03-31T12:28:12.190Z,1.90
2018-03-31T12:30:42.840Z,1.87
2018-03-31T12:33:13.550Z,2.17
2018-03-31T12:35:44.192Z,1.80
2018-03-31T12:38:14.870Z,1.73
2018-03-31T12:40:45.520Z,2.37
2018-03-31T12:43:16.194Z,2.27
2018-03-31T12:45:46.844Z,1.70
2018-03-31T12:48:17.537Z,1.80
2018-03-31T12:50:48.190Z,1.80
2018-03-31T12:53:18.851Z,1.70
2018-03-31T12:55:49.505Z,2.37
2018-03-31T12:58:20.182Z,2.60
2018-03-31T13:00:50.844Z,1.83
2018-03-31T13:03:21.523Z,2.23
2018-03-31T13:05:52.218Z,2.20
2018-03-31T13:08:22.915Z,2.43
2018-03-31T13:10:53.574Z,2.17
2018-03-31T13:13:24.281Z,2.90
2018-03-31T13:15:54.940Z,2.43
2018-03-31T13:18:25.656Z,1.97
2018-03-31T13:20:56.344Z,2.70
2018-03-31T13:23:27.022Z,2.47
2018-03-31T13:25:57.683Z,2.67
2018-03-31T13:28:28.375Z,2.80
2018-03-31T13:30:59.038Z,2.17
2018-03-31T13:33:29.771Z,2.50
2018-03-31T13:36:00.476Z,2.20
2018-03-31T13:38:31.163Z,1.83
2018-03-31T13:41:01.886Z,2.30
2018-03-31T13:43:32.571Z,2.53
2018-03-31T13:46:03.203Z,2.63
2018-03-31T13:48:33.949Z,2.20
2018-03-31T13:51:04.678Z,2.43
2018-03-31T13:53:35.414Z,2.50
2018-03-31T13:56:06.077Z,2.30
2018-03-31T13:58:36.772Z,2.73
2018-03-31T14:01:07.433Z,2.40
2018-03-31T14:03:38.113Z,2.30
2018-03-31T14:06:08.779Z,2.33
2018-03-31T14:08:39.534Z,2.33
2018-03-31T14:11:10.198Z,2.67
2018-03-31T14:13:40.833Z,2.13
2018-03-31T14:16:11.532Z,2.77
2018-03-31T14:18:42.202Z,2.70
2018-03-31T14:21:12.879Z,3.07
2018-03-31T14:23:43.511Z,4.17
2018-03-31T14:26:14.200Z,2.70
2018-03-31T14:28:44.974Z,2.30
2018-03-31T14:31:15.602Z,2.97
2018-03-31T14:33:46.296Z,2.53
2018-03-31T14:36:16.976Z,3.53
2018-03-31T14:38:47.631Z,2.20
2018-03-31T14:41:18.327Z,3.00
2018-03-31T14:43:48.990Z,2.77
2018-03-31T14:46:19.718Z,2.90
2018-03-31T14:48:50.428Z,2.80
2018-03-31T14:51:21.109Z,2.53
2018-03-31T14:53:52.007Z,2.60
2018-03-31T14:56:22.695Z,3.23
2018-03-31T14:58:53.365Z,3.10
2018-03-31T15:01:24.180Z,2.67
2018-03-31T15:03:54.833Z,4.70
2018-03-31T15:06:25.498Z,3.17
2018-03-31T15:08:56.206Z,2.53
2018-03-31T15:11:26.928Z,2.90
2018-03-31T15:13:57.625Z,3.03
2018-03-31T15:16:28.358Z,3.30
2018-03-31T15:18:59.023Z,2.37
2018-03-31T15:21:29.696Z,2.90
2018-03-31T15:24:00.366Z,2.63
2018-03-31T15:26:31.156Z,2.63
2018-03-31T15:29:01.823Z,3.20
2018-03-31T15:31:32.506Z,2.43
2018-03-31T15:34:03.171Z,2.20
2018-03-31T15:36:34.743Z,2.30
2018-03-31T15:39:05.406Z,2.70
2018-03-31T15:41:36.148Z,3.20
2018-03-31T15:44:06.832Z,2.53
2018-03-31T15:46:37.594Z,3.83
2018-03-31T15:49:08.213Z,5.20
2018-03-31T15:51:40.920Z,5.43
2018-03-31T15:54:11.593Z,3.22
2018-03-31T15:56:42.249Z,3.33
2018-03-31T15:59:12.938Z,3.50
2018-03-31T16:01:43.612Z,3.97
2018-03-31T16:04:14.426Z,3.23
2018-03-31T16:06:45.115Z,3.50
2018-03-31T16:09:16.850Z,5.00
2018-03-31T16:11:47.570Z,3.80
2018-03-31T16:14:18.257Z,4.43
2018-03-31T16:16:48.913Z,2.80
2018-03-31T16:19:19.570Z,3.60
2018-03-31T16:21:50.256Z,3.37
2018-03-31T16:24:20.889Z,3.30
2018-03-31T16:26:52.661Z,3.93
2018-03-31T16:29:23.401Z,2.92
2018-03-31T16:31:54.097Z,3.17
2018-03-31T16:34:24.754Z,4.37
2018-03-31T16:36:55.421Z,3.53
2018-03-31T16:39:26.112Z,4.57
2018-03-31T16:41:56.764Z,4.93
2018-03-31T16:44:27.703Z,3.07
2018-03-31T16:46:58.387Z,3.10
2018-03-31T16:49:29.052Z,2.70
2018-03-31T16:51:59.823Z,3.90
2018-03-31T16:54:30.518Z,4.00
2018-03-31T16:57:01.154Z,2.87
2018-03-31T16:59:31.813Z,2.40
2018-03-31T17:02:02.474Z,3.67
2018-03-31T17:04:33.149Z,2.53
2018-03-31T17:07:03.898Z,3.53
2018-03-31T17:09:34.517Z,3.33
2018-03-31T17:12:05.213Z,3.77
2018-03-31T17:14:35.883Z,3.47
2018-03-31T17:17:06.613Z,3.27
2018-03-31T17:19:37.276Z,4.00
2018-03-31T17:22:08.059Z,4.13
2018-03-31T17:24:38.709Z,3.43
2018-03-31T17:27:09.350Z,3.30
2018-03-31T17:29:40.007Z,3.40
2018-03-31T17:32:11.712Z,3.53
2018-03-31T17:34:42.406Z,4.07
2018-03-31T17:37:13.076Z,3.93
2018-03-31T17:39:43.711Z,3.13
2018-03-31T17:42:14.368Z,3.10
2018-03-31T17:44:45.033Z,3.70
2018-03-31T17:47:15.734Z,3.33
2018-03-31T17:49:46.412Z,3.37
2018-03-31T17:52:17.066Z,3.83
2018-03-31T17:54:47.728Z,3.80
2018-03-31T17:57:18.375Z,4.23
2018-03-31T17:59:49.059Z,4.33
2018-03-31T18:02:19.758Z,4.73
2018-03-31T18:04:50.417Z,4.83
2018-03-31T18:07:21.072Z,4.67
2018-03-31T18:09:51.743Z,4.77
2018-03-31T18:12:22.431Z,4.20
2018-03-31T18:14:53.102Z,4.90
2018-03-31T18:17:23.765Z,4.63
2018-03-31T18:19:54.422Z,5.13
2018-03-31T18:22:25.091Z,5.10
2018-03-31T18:24:55.810Z,5.33
2018-03-31T18:27:26.579Z,4.90
2018-03-31T18:29:57.206Z,4.90
2018-03-31T18:32:27.883Z,5.63
2018-03-31T18:34:58.544Z,5.73
2018-03-31T18:37:29.210Z,4.67
2018-03-31T18:39:59.878Z,5.70
2018-03-31T18:42:30.556Z,6.73
2018-03-31T18:45:01.206Z,6.83
2018-03-31T18:47:31.942Z,5.27
2018-03-31T18:50:02.602Z,5.53
2018-03-31T18:52:34.332Z,4.70
2018-03-31T18:55:04.981Z,5.03
2018-03-31T18:57:35.643Z,5.03
2018-03-31T19:00:06.345Z,4.57
2018-03-31T19:02:37.010Z,3.67
2018-03-31T19:05:07.710Z,4.17
2018-03-31T19:07:38.383Z,4.50
2018-03-31T19:10:11.090Z,4.20
2018-03-31T19:12:41.756Z,4.43
2018-03-31T19:15:12.398Z,4.40
2018-03-31T19:17:43.048Z,3.80
2018-03-31T19:20:16.596Z,3.73
2018-03-31T19:22:47.285Z,10.18
2018-03-31T19:25:24.254Z,4.33
2018-03-31T19:27:55.965Z,3.92
2018-03-31T19:30:32.842Z,3.95
2018-03-31T19:33:03.495Z,3.90
2018-03-31T19:35:40.307Z,4.70
2018-03-31T19:38:10.985Z,3.65
2018-03-31T19:40:41.719Z,4.00
2018-03-31T19:43:12.402Z,3.70
2018-03-31T19:45:43.124Z,4.17
2018-03-31T19:48:13.782Z,2.90
2018-03-31T19:50:44.429Z,3.30
2018-03-31T19:53:15.125Z,4.00
2018-03-31T19:55:45.774Z,3.43
2018-03-31T19:58:16.445Z,3.20
2018-03-31T20:00:47.077Z,4.20
2018-03-31T20:03:17.778Z,4.73
2018-03-31T20:05:48.459Z,3.07
2018-03-31T20:08:19.114Z,4.20
2018-03-31T20:10:49.804Z,3.73
2018-03-31T20:13:20.481Z,3.73
2018-03-31T20:15:51.130Z,3.43
2018-03-31T20:18:21.770Z,4.07
2018-03-31T20:20:52.435Z,3.80
2018-03-31T20:23:23.080Z,3.63
2018-03-31T20:25:53.701Z,4.00
2018-03-31T20:28:24.363Z,3.80
2018-03-31T20:30:55.005Z,3.57
2018-03-31T20:33:25.659Z,4.07
2018-03-31T20:35:56.378Z,4.40
2018-03-31T20:38:27.052Z,4.20
2018-03-31T20:40:57.690Z,5.10
2018-03-31T20:43:28.358Z,6.03
2018-03-31T20:45:59.060Z,5.50
2018-03-31T20:51:27.780Z,6.87
2018-03-31T20:53:58.463Z,7.10
2018-03-31T20:56:29.135Z,5.87
2018-03-31T20:58:59.866Z,6.80
2018-03-31T21:01:30.526Z,8.93
2018-03-31T21:04:01.163Z,9.00
2018-03-31T21:06:31.818Z,8.97
2018-03-31T21:09:02.493Z,9.80
2018-03-31T21:11:33.138Z,9.20
2018-03-31T21:14:03.796Z,11.73
2018-03-31T21:16:34.469Z,7.97
2018-03-31T21:19:05.130Z,8.40
2018-03-31T21:21:35.788Z,9.60
2018-03-31T21:24:06.441Z,9.13
2018-03-31T21:26:37.085Z,7.13
2018-03-31T21:29:07.756Z,6.47
2018-03-31T21:31:38.399Z,7.13
2018-03-31T21:34:09.058Z,8.80
2018-03-31T21:36:39.756Z,8.40
2018-03-31T21:39:10.413Z,8.60
2018-03-31T21:41:41.062Z,7.83
2018-03-31T21:44:11.719Z,7.37
2018-03-31T21:46:42.395Z,8.70
2018-03-31T21:49:13.043Z,10.20
2018-03-31T21:51:43.681Z,8.50
2018-03-31T21:54:14.328Z,8.43
2018-03-31T21:56:44.953Z,7.80
2018-03-31T21:59:15.637Z,8.50
2018-03-31T22:01:46.307Z,10.17
2018-03-31T22:04:16.957Z,9.33
2018-03-31T22:06:47.599Z,10.60
2018-03-31T22:09:18.233Z,7.67
2018-03-31T22:11:48.858Z,8.90
2018-03-31T22:14:25.803Z,8.93
2018-03-31T22:16:56.438Z,6.70
2018-03-31T22:19:27.078Z,9.60
2018-03-31T22:21:57.753Z,10.13
2018-03-31T22:24:28.408Z,8.23
2018-03-31T22:26:59.090Z,8.50
2018-03-31T22:29:29.711Z,8.40
2018-03-31T22:32:00.372Z,8.77
2018-03-31T22:34:31.040Z,8.60
2018-03-31T22:37:01.699Z,9.93
2018-03-31T22:39:32.401Z,8.33
2018-03-31T22:42:03.070Z,9.40
2018-03-31T22:44:33.752Z,9.50
2018-03-31T22:47:04.482Z,9.33
2018-03-31T22:49:35.168Z,11.63
2018-03-31T22:52:05.866Z,10.27
2018-03-31T22:54:36.539Z,8.83
2018-03-31T22:57:07.173Z,8.67
2018-03-31T22:59:37.819Z,8.90
2018-03-31T23:02:08.454Z,10.50
2018-03-31T23:04:39.090Z,9.03
2018-03-31T23:07:09.789Z,10.33
2018-03-31T23:09:40.457Z,8.53
2018-03-31T23:12:11.125Z,9.37
2018-03-31T23:14:41.783Z,9.47
2018-03-31T23:17:12.426Z,8.43
2018-03-31T23:19:43.103Z,8.80
2018-03-31T23:22:13.774Z,10.10
2018-03-31T23:24:44.441Z,8.80
2018-03-31T23:27:15.081Z,10.27
2018-03-31T23:29:45.766Z,10.00
2018-03-31T23:32:16.538Z,10.10
2018-03-31T23:34:47.201Z,10.00
2018-03-31T23:37:17.855Z,9.17
2018-03-31T23:39:48.519Z,10.07
2018-03-31T23:42:19.143Z,9.70
2018-03-31T23:44:49.803Z,10.60
2018-03-31T23:47:20.500Z,10.00
2018-03-31T23:49:51.151Z,10.17
2018-03-31T23:52:21.780Z,9.70
2018-03-31T23:54:52.414Z,9.87
2018-03-31T23:57:23.041Z,9.30
2018-03-31T23:59:53.698Z,11.33
